Etusivu
METAR-TAF:

METAR-TAF

Lentoasemat :

Melilla, Espanja

Leveyspiiri: 35-17N, Pituuspiiri: 002-57W, korkeus merenpinnasta: 47 m

Tämänhetkinen sää

Tämä raportti tehtiin 18 minuuttia sitten, kello 21.30 UTC
Tuuli 2 kn eri suunnista
Lämpötila 25°C
Kosteus 74%
Ilmanpaine 1012 hPa
Näkyvyys 10 km tai enemmän
ei pilviä alle 1500 m:ssä eikä cumulonimbus-pilviä

METAR: GEML 132130Z AUTO VRB02KT CAVOK 25/20 Q1012

Aika: 23:48 (21:48 UTC)

Sääennuste

Tämä raportti tehtiin 4 tuntia ja 48 minuuttia sitten, kello 17.00 UTC
Ennuste voimassa 13. päivästä klo 18 UTC - 14. päivään klo 18 UTC
Tuuli 10 kn luoteesta
Näkyvyys 10 km tai enemmän
ei pilviä alle 1500 m:ssä eikä cumulonimbus-pilviä
Tulossa
13. päivästä klo 19 UTC - 13. päivään klo 21 UTC
Tuuli 3 kn eri suunnista

TAF: GEML 131700Z 1318/1418 31010KT CAVOK TX32/1414Z TN22/1405Z BECMG 1319/1321 VRB03KT

Säähavainnot ja -ennusteet yli 4000 lentoasemalta (METAR- ja TAF-raportit).

Käytössä olevat sääasemat on merkitty karttaan keltaisilla ja punaisilla pisteillä.

Aseta hiiri pisteen päälle nähdäksesi sääaseman nimen.

Klikkaa sitten nähdäksesi säähavainnot ja -ennusteet.

Kartan vaihtaminen: klikkaa mustalla rastilla varustettuja vihreitä pisteitä, niin voit zoomata sisään; viivalla varustettua vihreää pistettä, niin voit zoomata ulos tai vihreitä nuolia, niin pääset viereisille kartoille.


METAR-TAF: